sensor_id;sensor_type;location;lat;lon;timestamp;temperature;humidity
18043;DHT22;9146;48.074;11.968;2022-09-01T00:01:44;13.80;99.90
18043;DHT22;9146;48.074;11.968;2022-09-01T00:04:13;13.70;99.90
18043;DHT22;9146;48.074;11.968;2022-09-01T00:06:41;13.70;99.90
18043;DHT22;9146;48.074;11.968;2022-09-01T00:09:11;13.70;99.90
18043;DHT22;9146;48.074;11.968;2022-09-01T00:11:41;13.60;99.90
18043;DHT22;9146;48.074;11.968;2022-09-01T00:14:09;13.60;99.90
18043;DHT22;9146;48.074;11.968;2022-09-01T00:16:36;13.60;99.90
18043;DHT22;9146;48.074;11.968;2022-09-01T00:19:05;13.60;99.90
18043;DHT22;9146;48.074;11.968;2022-09-01T00:21:36;13.50;99.90
18043;DHT22;9146;48.074;11.968;2022-09-01T00:24:04;13.50;99.90
18043;DHT22;9146;48.074;11.968;2022-09-01T00:26:32;13.50;99.90
18043;DHT22;9146;48.074;11.968;2022-09-01T00:28:58;13.50;99.90
18043;DHT22;9146;48.074;11.968;2022-09-01T00:31:26;13.50;99.90
18043;DHT22;9146;48.074;11.968;2022-09-01T00:33:53;13.50;99.90
18043;DHT22;9146;48.074;11.968;2022-09-01T00:36:22;13.50;99.90
18043;DHT22;9146;48.074;11.968;2022-09-01T00:38:50;13.50;99.90
18043;DHT22;9146;48.074;11.968;2022-09-01T00:41:18;13.50;99.90
18043;DHT22;9146;48.074;11.968;2022-09-01T00:43:47;13.50;99.90
18043;DHT22;9146;48.074;11.968;2022-09-01T00:46:18;13.50;99.90
18043;DHT22;9146;48.074;11.968;2022-09-01T00:48:45;13.50;99.90
18043;DHT22;9146;48.074;11.968;2022-09-01T00:51:14;13.50;99.90
18043;DHT22;9146;48.074;11.968;2022-09-01T00:53:43;13.50;99.90
18043;DHT22;9146;48.074;11.968;2022-09-01T00:56:12;13.50;99.90
18043;DHT22;9146;48.074;11.968;2022-09-01T00:58:42;13.50;99.90
18043;DHT22;9146;48.074;11.968;2022-09-01T01:01:10;13.50;99.90
18043;DHT22;9146;48.074;11.968;2022-09-01T01:03:38;13.50;99.90
18043;DHT22;9146;48.074;11.968;2022-09-01T01:06:10;13.50;99.90
18043;DHT22;9146;48.074;11.968;2022-09-01T01:08:41;13.50;99.90
18043;DHT22;9146;48.074;11.968;2022-09-01T01:11:12;13.50;99.90
18043;DHT22;9146;48.074;11.968;2022-09-01T01:13:49;13.50;99.90
18043;DHT22;9146;48.074;11.968;2022-09-01T01:16:21;13.40;99.90
18043;DHT22;9146;48.074;11.968;2022-09-01T01:18:49;13.40;99.90
18043;DHT22;9146;48.074;11.968;2022-09-01T01:21:19;13.40;99.90
18043;DHT22;9146;48.074;11.968;2022-09-01T01:24:21;13.30;99.90
18043;DHT22;9146;48.074;11.968;2022-09-01T01:26:49;13.30;99.90
18043;DHT22;9146;48.074;11.968;2022-09-01T01:29:16;13.30;99.90
18043;DHT22;9146;48.074;11.968;2022-09-01T01:31:43;13.30;99.90
18043;DHT22;9146;48.074;11.968;2022-09-01T01:34:20;13.20;99.90
18043;DHT22;9146;48.074;11.968;2022-09-01T01:36:48;13.20;99.90
18043;DHT22;9146;48.074;11.968;2022-09-01T01:39:18;13.20;99.90
18043;DHT22;9146;48.074;11.968;2022-09-01T01:41:46;13.20;99.90
18043;DHT22;9146;48.074;11.968;2022-09-01T01:44:16;13.20;99.90
18043;DHT22;9146;48.074;11.968;2022-09-01T01:46:46;13.10;99.90
18043;DHT22;9146;48.074;11.968;2022-09-01T01:49:25;13.10;99.90
18043;DHT22;9146;48.074;11.968;2022-09-01T01:51:56;13.10;99.90
18043;DHT22;9146;48.074;11.968;2022-09-01T01:54:24;13.10;99.90
18043;DHT22;9146;48.074;11.968;2022-09-01T01:56:53;13.10;99.90
18043;DHT22;9146;48.074;11.968;2022-09-01T01:59:23;13.10;99.90
18043;DHT22;9146;48.074;11.968;2022-09-01T02:01:51;13.10;99.90
18043;DHT22;9146;48.074;11.968;2022-09-01T02:04:20;13.00;99.90
18043;DHT22;9146;48.074;11.968;2022-09-01T02:06:48;13.00;99.90
18043;DHT22;9146;48.074;11.968;2022-09-01T02:09:19;13.00;99.90
18043;DHT22;9146;48.074;11.968;2022-09-01T02:11:48;13.00;99.90
18043;DHT22;9146;48.074;11.968;2022-09-01T02:14:18;12.90;99.90
18043;DHT22;9146;48.074;11.968;2022-09-01T02:16:46;12.90;99.90
18043;DHT22;9146;48.074;11.968;2022-09-01T02:19:14;12.90;99.90
18043;DHT22;9146;48.074;11.968;2022-09-01T02:21:45;12.80;99.90
18043;DHT22;9146;48.074;11.968;2022-09-01T02:24:19;12.80;99.90
18043;DHT22;9146;48.074;11.968;2022-09-01T02:26:46;12.80;99.90
18043;DHT22;9146;48.074;11.968;2022-09-01T02:29:19;12.70;99.90
18043;DHT22;9146;48.074;11.968;2022-09-01T02:31:49;12.70;99.90
18043;DHT22;9146;48.074;11.968;2022-09-01T02:34:17;12.60;99.90
18043;DHT22;9146;48.074;11.968;2022-09-01T02:36:48;12.60;99.90
18043;DHT22;9146;48.074;11.968;2022-09-01T02:39:20;12.50;99.90
18043;DHT22;9146;48.074;11.968;2022-09-01T02:41:48;12.50;99.90
18043;DHT22;9146;48.074;11.968;2022-09-01T02:44:16;12.40;99.90
18043;DHT22;9146;48.074;11.968;2022-09-01T02:46:48;12.40;99.90
18043;DHT22;9146;48.074;11.968;2022-09-01T02:49:18;12.30;99.90
18043;DHT22;9146;48.074;11.968;2022-09-01T02:51:48;12.30;99.90
18043;DHT22;9146;48.074;11.968;2022-09-01T02:54:20;12.30;99.90
18043;DHT22;9146;48.074;11.968;2022-09-01T02:56:49;12.30;99.90
18043;DHT22;9146;48.074;11.968;2022-09-01T02:59:21;12.30;99.90
18043;DHT22;9146;48.074;11.968;2022-09-01T03:01:49;12.30;99.90
18043;DHT22;9146;48.074;11.968;2022-09-01T03:04:17;12.20;99.90
18043;DHT22;9146;48.074;11.968;2022-09-01T03:06:45;12.20;99.90
18043;DHT22;9146;48.074;11.968;2022-09-01T03:09:16;12.20;99.90
18043;DHT22;9146;48.074;11.968;2022-09-01T03:11:47;12.10;99.90
18043;DHT22;9146;48.074;11.968;2022-09-01T03:14:14;12.10;99.90
18043;DHT22;9146;48.074;11.968;2022-09-01T03:16:42;12.00;99.90
18043;DHT22;9146;48.074;11.968;2022-09-01T03:19:09;12.00;99.90
18043;DHT22;9146;48.074;11.968;2022-09-01T03:21:38;12.00;99.90
18043;DHT22;9146;48.074;11.968;2022-09-01T03:24:06;11.90;99.90
18043;DHT22;9146;48.074;11.968;2022-09-01T03:26:35;11.90;99.90
18043;DHT22;9146;48.074;11.968;2022-09-01T03:29:03;11.90;99.90
18043;DHT22;9146;48.074;11.968;2022-09-01T03:31:30;11.80;99.90
18043;DHT22;9146;48.074;11.968;2022-09-01T03:33:58;11.80;99.90
18043;DHT22;9146;48.074;11.968;2022-09-01T03:36:25;11.70;99.90
18043;DHT22;9146;48.074;11.968;2022-09-01T03:38:53;11.70;99.90
18043;DHT22;9146;48.074;11.968;2022-09-01T03:41:22;11.60;99.90
18043;DHT22;9146;48.074;11.968;2022-09-01T03:43:51;11.70;99.90
18043;DHT22;9146;48.074;11.968;2022-09-01T03:46:20;11.60;99.90
18043;DHT22;9146;48.074;11.968;2022-09-01T03:48:50;11.60;99.90
18043;DHT22;9146;48.074;11.968;2022-09-01T03:51:18;11.50;99.90
18043;DHT22;9146;48.074;11.968;2022-09-01T03:53:49;11.50;99.90
18043;DHT22;9146;48.074;11.968;2022-09-01T03:56:18;11.50;99.90
18043;DHT22;9146;48.074;11.968;2022-09-01T03:58:46;11.50;99.90
18043;DHT22;9146;48.074;11.968;2022-09-01T04:01:15;11.40;99.90
18043;DHT22;9146;48.074;11.968;2022-09-01T04:03:42;11.40;99.90
18043;DHT22;9146;48.074;11.968;2022-09-01T04:06:14;11.40;99.90
18043;DHT22;9146;48.074;11.968;2022-09-01T04:08:43;11.40;99.90
18043;DHT22;9146;48.074;11.968;2022-09-01T04:11:13;11.40;99.90
18043;DHT22;9146;48.074;11.968;2022-09-01T04:13:41;11.40;99.90
18043;DHT22;9146;48.074;11.968;2022-09-01T04:16:18;11.50;99.90
18043;DHT22;9146;48.074;11.968;2022-09-01T04:19:00;11.50;99.90
18043;DHT22;9146;48.074;11.968;2022-09-01T04:21:32;11.50;99.90
18043;DHT22;9146;48.074;11.968;2022-09-01T04:23:59;11.60;99.90
18043;DHT22;9146;48.074;11.968;2022-09-01T04:26:30;11.70;99.90
18043;DHT22;9146;48.074;11.968;2022-09-01T04:28:58;11.80;99.90
18043;DHT22;9146;48.074;11.968;2022-09-01T04:31:26;11.80;99.90
18043;DHT22;9146;48.074;11.968;2022-09-01T04:33:55;11.90;99.90
18043;DHT22;9146;48.074;11.968;2022-09-01T04:36:24;11.90;99.90
18043;DHT22;9146;48.074;11.968;2022-09-01T04:38:54;12.00;99.90
18043;DHT22;9146;48.074;11.968;2022-09-01T04:41:23;12.00;99.90
18043;DHT22;9146;48.074;11.968;2022-09-01T04:43:51;12.00;99.90
18043;DHT22;9146;48.074;11.968;2022-09-01T04:46:21;12.10;99.90
18043;DHT22;9146;48.074;11.968;2022-09-01T04:48:52;12.10;99.90
18043;DHT22;9146;48.074;11.968;2022-09-01T04:51:20;12.10;99.90
18043;DHT22;9146;48.074;11.968;2022-09-01T04:53:48;12.20;99.90
18043;DHT22;9146;48.074;11.968;2022-09-01T04:56:17;12.20;99.90
18043;DHT22;9146;48.074;11.968;2022-09-01T04:58:45;12.30;99.90
18043;DHT22;9146;48.074;11.968;2022-09-01T05:01:13;12.30;99.90
18043;DHT22;9146;48.074;11.968;2022-09-01T05:03:40;12.30;99.90
18043;DHT22;9146;48.074;11.968;2022-09-01T05:06:14;12.40;99.90
18043;DHT22;9146;48.074;11.968;2022-09-01T05:08:42;12.40;99.90
18043;DHT22;9146;48.074;11.968;2022-09-01T05:11:10;12.50;99.90
18043;DHT22;9146;48.074;11.968;2022-09-01T05:13:38;12.50;99.90
18043;DHT22;9146;48.074;11.968;2022-09-01T05:16:06;12.60;99.90
18043;DHT22;9146;48.074;11.968;2022-09-01T05:18:38;12.60;99.90
18043;DHT22;9146;48.074;11.968;2022-09-01T05:21:07;12.60;99.90
18043;DHT22;9146;48.074;11.968;2022-09-01T05:23:36;12.70;99.90
18043;DHT22;9146;48.074;11.968;2022-09-01T05:26:05;12.70;99.90
18043;DHT22;9146;48.074;11.968;2022-09-01T05:28:39;12.70;99.90
18043;DHT22;9146;48.074;11.968;2022-09-01T05:31:06;12.80;99.90
18043;DHT22;9146;48.074;11.968;2022-09-01T05:33:34;12.80;99.90
18043;DHT22;9146;48.074;11.968;2022-09-01T05:36:02;12.90;99.90
18043;DHT22;9146;48.074;11.968;2022-09-01T05:38:33;12.90;99.90
18043;DHT22;9146;48.074;11.968;2022-09-01T05:41:03;13.00;99.90
18043;DHT22;9146;48.074;11.968;2022-09-01T05:43:31;13.00;99.90
18043;DHT22;9146;48.074;11.968;2022-09-01T05:45:59;13.00;99.90
18043;DHT22;9146;48.074;11.968;2022-09-01T05:48:28;13.00;99.90
18043;DHT22;9146;48.074;11.968;2022-09-01T05:50:56;13.10;99.90
18043;DHT22;9146;48.074;11.968;2022-09-01T05:53:24;13.10;99.90
18043;DHT22;9146;48.074;11.968;2022-09-01T05:55:52;13.10;99.90
18043;DHT22;9146;48.074;11.968;2022-09-01T05:58:23;13.10;99.90
18043;DHT22;9146;48.074;11.968;2022-09-01T06:00:51;13.10;99.90
18043;DHT22;9146;48.074;11.968;2022-09-01T06:03:18;13.20;99.90
18043;DHT22;9146;48.074;11.968;2022-09-01T06:05:47;13.20;99.90
18043;DHT22;9146;48.074;11.968;2022-09-01T06:08:18;13.20;99.90
18043;DHT22;9146;48.074;11.968;2022-09-01T06:10:46;13.30;99.90
18043;DHT22;9146;48.074;11.968;2022-09-01T06:13:15;13.30;99.90
18043;DHT22;9146;48.074;11.968;2022-09-01T06:15:45;13.40;99.90
18043;DHT22;9146;48.074;11.968;2022-09-01T06:18:12;13.50;99.90
18043;DHT22;9146;48.074;11.968;2022-09-01T06:20:40;13.60;99.90
18043;DHT22;9146;48.074;11.968;2022-09-01T06:23:08;13.70;99.90
18043;DHT22;9146;48.074;11.968;2022-09-01T06:25:37;13.70;99.90
18043;DHT22;9146;48.074;11.968;2022-09-01T06:28:04;13.80;99.90
18043;DHT22;9146;48.074;11.968;2022-09-01T06:30:33;13.90;99.90
18043;DHT22;9146;48.074;11.968;2022-09-01T06:33:02;14.00;99.90
18043;DHT22;9146;48.074;11.968;2022-09-01T06:35:34;14.00;99.90
18043;DHT22;9146;48.074;11.968;2022-09-01T06:38:01;14.10;99.90
18043;DHT22;9146;48.074;11.968;2022-09-01T06:40:29;14.20;99.90
18043;DHT22;9146;48.074;11.968;2022-09-01T06:42:56;14.30;99.90
18043;DHT22;9146;48.074;11.968;2022-09-01T06:45:25;14.40;99.90
18043;DHT22;9146;48.074;11.968;2022-09-01T06:47:52;14.50;99.90
18043;DHT22;9146;48.074;11.968;2022-09-01T06:50:22;14.60;99.90
18043;DHT22;9146;48.074;11.968;2022-09-01T06:52:49;14.70;99.90
18043;DHT22;9146;48.074;11.968;2022-09-01T06:55:26;14.80;99.90
18043;DHT22;9146;48.074;11.968;2022-09-01T06:57:58;14.80;99.90
18043;DHT22;9146;48.074;11.968;2022-09-01T07:00:25;14.90;99.90
18043;DHT22;9146;48.074;11.968;2022-09-01T07:02:55;15.00;99.90
18043;DHT22;9146;48.074;11.968;2022-09-01T07:05:24;15.10;99.90
18043;DHT22;9146;48.074;11.968;2022-09-01T07:07:53;15.20;99.90
18043;DHT22;9146;48.074;11.968;2022-09-01T07:10:21;15.30;99.90
18043;DHT22;9146;48.074;11.968;2022-09-01T07:12:49;15.50;99.90
18043;DHT22;9146;48.074;11.968;2022-09-01T07:15:16;15.60;99.90
18043;DHT22;9146;48.074;11.968;2022-09-01T07:17:46;15.60;99.90
18043;DHT22;9146;48.074;11.968;2022-09-01T07:20:15;15.70;99.90
18043;DHT22;9146;48.074;11.968;2022-09-01T07:22:43;15.80;99.90
18043;DHT22;9146;48.074;11.968;2022-09-01T07:25:10;15.80;99.90
18043;DHT22;9146;48.074;11.968;2022-09-01T07:27:38;16.00;99.90
18043;DHT22;9146;48.074;11.968;2022-09-01T07:30:06;16.10;99.90
18043;DHT22;9146;48.074;11.968;2022-09-01T07:32:34;16.20;99.90
18043;DHT22;9146;48.074;11.968;2022-09-01T07:35:04;16.40;99.90
18043;DHT22;9146;48.074;11.968;2022-09-01T07:37:33;16.40;99.90
18043;DHT22;9146;48.074;11.968;2022-09-01T07:40:06;16.40;99.90
18043;DHT22;9146;48.074;11.968;2022-09-01T07:42:34;16.30;99.90
18043;DHT22;9146;48.074;11.968;2022-09-01T07:45:04;16.40;99.90
18043;DHT22;9146;48.074;11.968;2022-09-01T07:47:34;16.60;99.90
18043;DHT22;9146;48.074;11.968;2022-09-01T07:50:03;16.70;99.90
18043;DHT22;9146;48.074;11.968;2022-09-01T07:52:33;16.90;99.90
18043;DHT22;9146;48.074;11.968;2022-09-01T07:55:01;16.90;99.90
18043;DHT22;9146;48.074;11.968;2022-09-01T07:57:29;17.00;99.90
18043;DHT22;9146;48.074;11.968;2022-09-01T07:59:56;17.00;99.90
18043;DHT22;9146;48.074;11.968;2022-09-01T08:02:23;17.00;99.90
18043;DHT22;9146;48.074;11.968;2022-09-01T08:04:52;17.00;99.90
18043;DHT22;9146;48.074;11.968;2022-09-01T08:07:19;17.00;99.90
18043;DHT22;9146;48.074;11.968;2022-09-01T08:09:46;16.90;99.90
18043;DHT22;9146;48.074;11.968;2022-09-01T08:12:13;17.00;99.90
18043;DHT22;9146;48.074;11.968;2022-09-01T08:14:42;17.10;99.90
18043;DHT22;9146;48.074;11.968;2022-09-01T08:17:10;17.10;99.90
18043;DHT22;9146;48.074;11.968;2022-09-01T08:19:37;17.10;99.90
18043;DHT22;9146;48.074;11.968;2022-09-01T08:22:04;17.20;99.90
18043;DHT22;9146;48.074;11.968;2022-09-01T08:24:30;17.30;99.90
18043;DHT22;9146;48.074;11.968;2022-09-01T08:26:57;17.50;99.90
18043;DHT22;9146;48.074;11.968;2022-09-01T08:29:24;17.60;99.90
18043;DHT22;9146;48.074;11.968;2022-09-01T08:31:53;17.60;99.90
18043;DHT22;9146;48.074;11.968;2022-09-01T08:34:20;17.60;99.90
18043;DHT22;9146;48.074;11.968;2022-09-01T08:36:46;17.70;99.90
18043;DHT22;9146;48.074;11.968;2022-09-01T08:39:13;17.70;99.90
18043;DHT22;9146;48.074;11.968;2022-09-01T08:41:42;17.80;99.90
18043;DHT22;9146;48.074;11.968;2022-09-01T08:44:18;17.80;99.90
18043;DHT22;9146;48.074;11.968;2022-09-01T08:46:48;18.00;99.90
18043;DHT22;9146;48.074;11.968;2022-09-01T08:49:22;18.20;99.90
18043;DHT22;9146;48.074;11.968;2022-09-01T08:51:55;18.30;99.90
18043;DHT22;9146;48.074;11.968;2022-09-01T08:54:27;18.20;99.90
18043;DHT22;9146;48.074;11.968;2022-09-01T08:56:59;18.30;99.90
18043;DHT22;9146;48.074;11.968;2022-09-01T08:59:27;18.30;99.90
18043;DHT22;9146;48.074;11.968;2022-09-01T09:02:00;18.40;99.90
18043;DHT22;9146;48.074;11.968;2022-09-01T09:04:43;18.40;99.90
18043;DHT22;9146;48.074;11.968;2022-09-01T09:07:23;18.40;99.90
18043;DHT22;9146;48.074;11.968;2022-09-01T09:09:54;18.40;99.90
18043;DHT22;9146;48.074;11.968;2022-09-01T09:12:34;18.40;99.90
18043;DHT22;9146;48.074;11.968;2022-09-01T09:15:12;18.50;99.90
18043;DHT22;9146;48.074;11.968;2022-09-01T09:17:44;18.50;99.90
18043;DHT22;9146;48.074;11.968;2022-09-01T09:20:14;18.60;99.90
18043;DHT22;9146;48.074;11.968;2022-09-01T09:22:42;18.70;99.90
18043;DHT22;9146;48.074;11.968;2022-09-01T09:25:12;18.80;99.90
18043;DHT22;9146;48.074;11.968;2022-09-01T09:27:41;18.80;99.90
18043;DHT22;9146;48.074;11.968;2022-09-01T09:30:10;19.00;99.90
18043;DHT22;9146;48.074;11.968;2022-09-01T09:32:46;19.10;99.90
18043;DHT22;9146;48.074;11.968;2022-09-01T09:35:23;19.20;99.90
18043;DHT22;9146;48.074;11.968;2022-09-01T09:37:51;19.30;99.90
18043;DHT22;9146;48.074;11.968;2022-09-01T09:40:20;19.30;99.90
18043;DHT22;9146;48.074;11.968;2022-09-01T09:43:03;19.20;99.90
18043;DHT22;9146;48.074;11.968;2022-09-01T09:45:33;19.10;99.90
18043;DHT22;9146;48.074;11.968;2022-09-01T09:48:04;19.00;99.90
18043;DHT22;9146;48.074;11.968;2022-09-01T09:50:35;19.00;99.90
18043;DHT22;9146;48.074;11.968;2022-09-01T09:53:15;19.00;99.90
18043;DHT22;9146;48.074;11.968;2022-09-01T09:56:07;19.00;99.90
18043;DHT22;9146;48.074;11.968;2022-09-01T09:58:44;19.10;99.90
18043;DHT22;9146;48.074;11.968;2022-09-01T10:01:14;19.20;99.90
18043;DHT22;9146;48.074;11.968;2022-09-01T10:03:55;19.20;99.90
18043;DHT22;9146;48.074;11.968;2022-09-01T10:06:32;19.20;99.90
18043;DHT22;9146;48.074;11.968;2022-09-01T10:09:01;19.10;99.90
18043;DHT22;9146;48.074;11.968;2022-09-01T10:11:34;19.20;99.90
18043;DHT22;9146;48.074;11.968;2022-09-01T10:14:05;19.20;99.90
18043;DHT22;9146;48.074;11.968;2022-09-01T10:16:33;19.20;99.90
18043;DHT22;9146;48.074;11.968;2022-09-01T10:19:06;19.20;99.90
18043;DHT22;9146;48.074;11.968;2022-09-01T10:21:39;19.10;99.90
18043;DHT22;9146;48.074;11.968;2022-09-01T10:24:17;19.00;99.90
18043;DHT22;9146;48.074;11.968;2022-09-01T10:26:49;19.00;99.90
18043;DHT22;9146;48.074;11.968;2022-09-01T10:29:21;19.00;99.90
18043;DHT22;9146;48.074;11.968;2022-09-01T10:31:50;19.00;99.90
18043;DHT22;9146;48.074;11.968;2022-09-01T10:34:20;19.00;99.90
18043;DHT22;9146;48.074;11.968;2022-09-01T10:36:49;19.00;99.90
18043;DHT22;9146;48.074;11.968;2022-09-01T10:39:18;19.00;99.90
18043;DHT22;9146;48.074;11.968;2022-09-01T10:41:51;19.10;99.90
18043;DHT22;9146;48.074;11.968;2022-09-01T10:44:23;19.20;99.90
18043;DHT22;9146;48.074;11.968;2022-09-01T10:46:55;19.20;99.90
18043;DHT22;9146;48.074;11.968;2022-09-01T10:52:58;19.10;99.90
18043;DHT22;9146;48.074;11.968;2022-09-01T10:55:33;18.90;99.90
18043;DHT22;9146;48.074;11.968;2022-09-01T10:58:26;18.70;99.90
18043;DHT22;9146;48.074;11.968;2022-09-01T11:00:54;18.50;99.90
18043;DHT22;9146;48.074;11.968;2022-09-01T11:06:42;18.70;99.90
18043;DHT22;9146;48.074;11.968;2022-09-01T11:09:20;18.90;99.90
18043;DHT22;9146;48.074;11.968;2022-09-01T11:11:56;19.20;99.90
18043;DHT22;9146;48.074;11.968;2022-09-01T11:14:30;19.60;99.90
18043;DHT22;9146;48.074;11.968;2022-09-01T11:17:17;19.90;99.90
18043;DHT22;9146;48.074;11.968;2022-09-01T11:19:45;20.10;99.90
18043;DHT22;9146;48.074;11.968;2022-09-01T11:22:23;20.20;99.90
18043;DHT22;9146;48.074;11.968;2022-09-01T11:25:07;20.40;99.90
18043;DHT22;9146;48.074;11.968;2022-09-01T11:28:00;20.40;99.90
18043;DHT22;9146;48.074;11.968;2022-09-01T11:30:42;20.20;99.90
18043;DHT22;9146;48.074;11.968;2022-09-01T11:36:27;19.50;99.90
18043;DHT22;9146;48.074;11.968;2022-09-01T11:39:03;19.40;99.90
18043;DHT22;9146;48.074;11.968;2022-09-01T11:41:34;19.40;99.90
18043;DHT22;9146;48.074;11.968;2022-09-01T11:44:13;19.60;99.90
18043;DHT22;9146;48.074;11.968;2022-09-01T11:46:41;19.60;99.90
18043;DHT22;9146;48.074;11.968;2022-09-01T11:49:24;19.50;99.90
18043;DHT22;9146;48.074;11.968;2022-09-01T11:51:53;19.50;99.90
18043;DHT22;9146;48.074;11.968;2022-09-01T11:54:22;19.50;99.90
18043;DHT22;9146;48.074;11.968;2022-09-01T11:56:50;19.70;99.90
18043;DHT22;9146;48.074;11.968;2022-09-01T11:59:30;19.70;99.90
18043;DHT22;9146;48.074;11.968;2022-09-01T12:01:58;19.80;99.90
18043;DHT22;9146;48.074;11.968;2022-09-01T12:04:30;20.00;99.90
18043;DHT22;9146;48.074;11.968;2022-09-01T12:07:00;20.10;99.90
18043;DHT22;9146;48.074;11.968;2022-09-01T12:09:35;20.30;99.90
18043;DHT22;9146;48.074;11.968;2022-09-01T12:12:05;20.30;99.90
18043;DHT22;9146;48.074;11.968;2022-09-01T12:14:33;20.40;99.90
18043;DHT22;9146;48.074;11.968;2022-09-01T12:17:02;20.60;99.90
18043;DHT22;9146;48.074;11.968;2022-09-01T12:19:33;20.70;99.90
18043;DHT22;9146;48.074;11.968;2022-09-01T12:22:06;20.80;99.90
18043;DHT22;9146;48.074;11.968;2022-09-01T12:24:44;20.80;99.90
18043;DHT22;9146;48.074;11.968;2022-09-01T12:27:13;20.90;99.90
18043;DHT22;9146;48.074;11.968;2022-09-01T12:29:40;20.90;99.90
18043;DHT22;9146;48.074;11.968;2022-09-01T12:32:07;20.90;99.90
18043;DHT22;9146;48.074;11.968;2022-09-01T12:34:39;20.90;99.90
18043;DHT22;9146;48.074;11.968;2022-09-01T12:37:10;21.10;99.90
18043;DHT22;9146;48.074;11.968;2022-09-01T12:39:39;21.30;99.90
18043;DHT22;9146;48.074;11.968;2022-09-01T12:42:09;21.40;99.90
18043;DHT22;9146;48.074;11.968;2022-09-01T12:44:46;21.50;99.90
18043;DHT22;9146;48.074;11.968;2022-09-01T12:47:44;21.60;99.90
18043;DHT22;9146;48.074;11.968;2022-09-01T12:50:43;21.80;99.90
18043;DHT22;9146;48.074;11.968;2022-09-01T12:53:17;22.10;99.90
18043;DHT22;9146;48.074;11.968;2022-09-01T12:58:36;22.40;99.90
18043;DHT22;9146;48.074;11.968;2022-09-01T13:01:05;22.50;99.90
18043;DHT22;9146;48.074;11.968;2022-09-01T13:03:35;22.50;99.90
18043;DHT22;9146;48.074;11.968;2022-09-01T13:06:02;22.50;99.90
18043;DHT22;9146;48.074;11.968;2022-09-01T13:08:31;22.50;99.90
18043;DHT22;9146;48.074;11.968;2022-09-01T13:11:03;22.60;99.90
18043;DHT22;9146;48.074;11.968;2022-09-01T13:13:31;22.60;99.90
18043;DHT22;9146;48.074;11.968;2022-09-01T13:16:00;22.60;99.90
18043;DHT22;9146;48.074;11.968;2022-09-01T13:18:39;22.50;99.90
18043;DHT22;9146;48.074;11.968;2022-09-01T13:21:06;22.40;99.90
18043;DHT22;9146;48.074;11.968;2022-09-01T13:23:33;22.30;99.90
18043;DHT22;9146;48.074;11.968;2022-09-01T13:26:01;22.20;99.90
18043;DHT22;9146;48.074;11.968;2022-09-01T13:28:29;22.00;99.90
18043;DHT22;9146;48.074;11.968;2022-09-01T13:30:59;21.70;99.90
18043;DHT22;9146;48.074;11.968;2022-09-01T13:33:31;21.50;99.90
18043;DHT22;9146;48.074;11.968;2022-09-01T13:35:59;21.20;99.90
18043;DHT22;9146;48.074;11.968;2022-09-01T13:38:26;21.00;99.90
18043;DHT22;9146;48.074;11.968;2022-09-01T13:40:54;20.80;99.90
18043;DHT22;9146;48.074;11.968;2022-09-01T13:43:22;20.60;99.90
18043;DHT22;9146;48.074;11.968;2022-09-01T13:45:51;20.40;99.90
18043;DHT22;9146;48.074;11.968;2022-09-01T13:48:19;20.30;99.90
18043;DHT22;9146;48.074;11.968;2022-09-01T13:50:47;20.40;99.90
18043;DHT22;9146;48.074;11.968;2022-09-01T13:53:16;20.50;99.90
18043;DHT22;9146;48.074;11.968;2022-09-01T13:55:43;20.60;99.90
18043;DHT22;9146;48.074;11.968;2022-09-01T13:58:10;20.80;99.90
18043;DHT22;9146;48.074;11.968;2022-09-01T14:00:40;20.80;99.90
18043;DHT22;9146;48.074;11.968;2022-09-01T14:03:10;20.70;99.90
18043;DHT22;9146;48.074;11.968;2022-09-01T14:05:39;20.70;99.90
18043;DHT22;9146;48.074;11.968;2022-09-01T14:08:07;20.50;99.90
18043;DHT22;9146;48.074;11.968;2022-09-01T14:10:39;20.40;99.90
18043;DHT22;9146;48.074;11.968;2022-09-01T14:13:07;20.30;99.90
18043;DHT22;9146;48.074;11.968;2022-09-01T14:15:34;20.30;99.90
18043;DHT22;9146;48.074;11.968;2022-09-01T14:18:02;20.30;99.90
18043;DHT22;9146;48.074;11.968;2022-09-01T14:20:31;20.30;99.90
18043;DHT22;9146;48.074;11.968;2022-09-01T14:23:01;20.20;99.90
18043;DHT22;9146;48.074;11.968;2022-09-01T14:25:29;20.20;99.90
18043;DHT22;9146;48.074;11.968;2022-09-01T14:27:59;20.10;99.90
18043;DHT22;9146;48.074;11.968;2022-09-01T14:30:29;20.10;99.90
18043;DHT22;9146;48.074;11.968;2022-09-01T14:32:56;20.20;99.90
18043;DHT22;9146;48.074;11.968;2022-09-01T14:35:24;20.30;99.90
18043;DHT22;9146;48.074;11.968;2022-09-01T14:37:51;20.30;99.90
18043;DHT22;9146;48.074;11.968;2022-09-01T14:40:19;20.50;99.90
18043;DHT22;9146;48.074;11.968;2022-09-01T14:42:48;20.60;99.90
18043;DHT22;9146;48.074;11.968;2022-09-01T14:45:20;20.80;99.90
18043;DHT22;9146;48.074;11.968;2022-09-01T14:47:49;20.80;99.90
18043;DHT22;9146;48.074;11.968;2022-09-01T14:50:18;20.90;99.90
18043;DHT22;9146;48.074;11.968;2022-09-01T14:52:46;21.00;99.90
18043;DHT22;9146;48.074;11.968;2022-09-01T14:55:13;21.10;99.90
18043;DHT22;9146;48.074;11.968;2022-09-01T14:57:40;21.30;99.90
18043;DHT22;9146;48.074;11.968;2022-09-01T15:00:10;21.50;99.90
18043;DHT22;9146;48.074;11.968;2022-09-01T15:02:40;21.80;99.90
18043;DHT22;9146;48.074;11.968;2022-09-01T15:05:09;22.00;98.90
18043;DHT22;9146;48.074;11.968;2022-09-01T15:07:36;22.00;98.60
18043;DHT22;9146;48.074;11.968;2022-09-01T15:10:04;22.00;98.80
18043;DHT22;9146;48.074;11.968;2022-09-01T15:12:32;21.90;98.50
18043;DHT22;9146;48.074;11.968;2022-09-01T15:14:59;21.70;98.90
18043;DHT22;9146;48.074;11.968;2022-09-01T15:17:27;21.50;99.40
18043;DHT22;9146;48.074;11.968;2022-09-01T15:19:56;21.20;99.00
18043;DHT22;9146;48.074;11.968;2022-09-01T15:22:43;21.00;99.60
18043;DHT22;9146;48.074;11.968;2022-09-01T15:25:11;20.80;99.90
18043;DHT22;9146;48.074;11.968;2022-09-01T15:27:38;20.70;99.90
18043;DHT22;9146;48.074;11.968;2022-09-01T15:30:06;20.60;99.90
18043;DHT22;9146;48.074;11.968;2022-09-01T15:32:42;20.70;99.90
18043;DHT22;9146;48.074;11.968;2022-09-01T15:35:11;20.70;99.90
18043;DHT22;9146;48.074;11.968;2022-09-01T15:37:38;20.70;99.90
18043;DHT22;9146;48.074;11.968;2022-09-01T15:40:06;20.70;99.90
18043;DHT22;9146;48.074;11.968;2022-09-01T15:42:34;20.60;99.90
18043;DHT22;9146;48.074;11.968;2022-09-01T15:45:02;20.60;99.90
18043;DHT22;9146;48.074;11.968;2022-09-01T15:47:29;20.60;99.90
18043;DHT22;9146;48.074;11.968;2022-09-01T15:49:56;20.50;99.70
18043;DHT22;9146;48.074;11.968;2022-09-01T15:52:25;20.60;99.90
18043;DHT22;9146;48.074;11.968;2022-09-01T15:54:54;20.50;99.70
18043;DHT22;9146;48.074;11.968;2022-09-01T15:57:21;20.40;99.70
18043;DHT22;9146;48.074;11.968;2022-09-01T15:59:48;20.40;99.70
18043;DHT22;9146;48.074;11.968;2022-09-01T16:02:15;20.30;99.80